Sari, Iran
Current Conditions -  °F | °C
As of 4:00 PM on Monday 20 Oct 2014 (Local Time) from OINZ Reporting Station
Overcast Overcast  
Wind Chill: 57°   Ceiling: 8000
Heat Index: 57°   Visibility: 6mi
Dew Point: 55°   Wind: 12mph
Humidity: 94%   Direction: 60°ENE
Pressure: 30.24"   Gusts: NA
Location:  36.57°N, 53.06°E
Report Text: OINZ 201300Z 06010KT 9999 SCT022CB OVC080 14/13 Q1024
Loading
Personal Weather Stations






























Interactive Weather Map
Tropical Storm Tracking
New forecast layout! Learn more

10-Day Weather Forecast

Advertisements
Track Severe Weather on mobile